Time;durP1;ratioP1;P1;durP2;ratioP2;P2;SDS_P1;SDS_P2;PMS_P1;PMS_P2;Temp;Humidity;BMP_temperature;BMP_pressure;BME280_temperature;BME280_humidity;BME280_pressure;Samples;Min_cycle;Max_cycle;Signal;HPM_P1;HPM_P2
2023/01/30 00:00:35;;;;;;;0.98;0.93;;;;;;;;;;5013350;28;20079;-65
2023/01/30 00:03:02;;;;;;;0.63;0.60;;;;;;;;;;5020681;28;20241;-65
2023/01/30 00:05:29;;;;;;;0.43;0.30;;;;;;;;;;5033297;28;20038;-65
2023/01/30 00:07:56;;;;;;;0.17;0.17;;;;;;;;;;5038572;28;20044;-64
2023/01/30 00:10:22;;;;;;;0.20;0.20;;;;;;;;;;5029951;28;20624;-65
2023/01/30 00:12:49;;;;;;;0.35;0.35;;;;;;;;;;5028462;28;20109;-63
2023/01/30 00:15:16;;;;;;;0.20;0.20;;;;;;;;;;5012445;28;20061;-64
2023/01/30 00:17:42;;;;;;;0.15;0.15;;;;;;;;;;5011402;28;20061;-63
2023/01/30 00:20:11;;;;;;;0.50;0.50;;;;;;;;;;4979988;28;20046;-62
2023/01/30 00:22:57;;;;;;;0.50;0.50;;;;;;;;;;5023368;28;20057;-62
2023/01/30 00:25:25;;;;;;;0.20;0.20;;;;;;;;;;5022927;28;20060;-63
2023/01/30 00:27:52;;;;;;;1.42;0.95;;;;;;;;;;5026361;28;20099;-63
2023/01/30 00:30:19;;;;;;;0.10;0.10;;;;;;;;;;5004011;28;20045;-63
2023/01/30 00:32:46;;;;;;;0.90;0.90;;;;;;;;;;5024012;28;20049;-63
2023/01/30 00:35:13;;;;;;;0.43;0.43;;;;;;;;;;5004493;28;20543;-65
2023/01/30 00:37:39;;;;;;;2.33;1.40;;;;;;;;;;5019759;28;20069;-65
2023/01/30 00:40:06;;;;;;;1.25;1.00;;;;;;;;;;4996645;28;20125;-64
2023/01/30 00:48:02;;;;;;;0.50;0.45;;;;;;;;;;5021866;28;20111;-65
2023/01/30 00:50:41;;;;;;;0.35;0.35;;;;;;;;;;5010526;28;20038;-66
2023/01/30 00:53:11;;;;;;;6.97;1.77;;;;;;;;;;5011672;28;20155;-66
2023/01/30 00:55:38;;;;;;;1.02;0.93;;;;;;;;;;5008344;28;20068;-63
2023/01/30 00:58:05;;;;;;;0.10;0.10;;;;;;;;;;5011023;28;20566;-64
2023/01/30 01:00:32;;;;;;;0.20;0.20;;;;;;;;;;5016313;28;20096;-64
2023/01/30 01:02:59;;;;;;;0.60;0.60;;;;;;;;;;5016113;28;20060;-63
2023/01/30 01:05:26;;;;;;;0.22;0.22;;;;;;;;;;5012903;28;20034;-64
2023/01/30 01:07:53;;;;;;;5.38;1.45;;;;;;;;;;5012161;28;20349;-63
2023/01/30 01:10:20;;;;;;;0.28;0.28;;;;;;;;;;5005469;28;20176;-64
2023/01/30 01:12:47;;;;;;;0.77;0.55;;;;;;;;;;5020110;28;20160;-64
2023/01/30 01:15:13;;;;;;;1.27;0.68;;;;;;;;;;5004430;28;20057;-63
2023/01/30 01:17:41;;;;;;;2.55;1.15;;;;;;;;;;5005376;28;20037;-64
2023/01/30 01:20:08;;;;;;;1.23;0.55;;;;;;;;;;5015183;28;20033;-64
2023/01/30 01:22:35;;;;;;;1.20;1.13;;;;;;;;;;5005116;28;20057;-63
2023/01/30 01:25:01;;;;;;;0.20;0.20;;;;;;;;;;5003527;28;20097;-64
2023/01/30 01:27:28;;;;;;;0.60;0.52;;;;;;;;;;5002764;28;20049;-61
2023/01/30 01:29:55;;;;;;;0.88;0.82;;;;;;;;;;5000818;28;20576;-63
2023/01/30 01:32:22;;;;;;;1.65;1.38;;;;;;;;;;5014517;28;20042;-63
2023/01/30 01:34:49;;;;;;;1.30;0.90;;;;;;;;;;5002908;28;20045;-64
2023/01/30 01:37:15;;;;;;;0.40;0.40;;;;;;;;;;5002638;28;20164;-64
2023/01/30 01:42:29;;;;;;;0.57;0.45;;;;;;;;;;5002666;28;20089;-64
2023/01/30 01:45:17;;;;;;;0.52;0.52;;;;;;;;;;5004212;28;20076;-64
2023/01/30 01:47:47;;;;;;;0.50;0.40;;;;;;;;;;5024311;28;20474;-64
2023/01/30 01:50:16;;;;;;;0.20;0.20;;;;;;;;;;5018822;28;20045;-63
2023/01/30 01:52:43;;;;;;;1.20;0.75;;;;;;;;;;5018572;28;20037;-63
2023/01/30 01:55:10;;;;;;;1.35;0.93;;;;;;;;;;5019407;28;20146;-65
2023/01/30 01:57:41;;;;;;;1.20;0.88;;;;;;;;;;5022099;28;20039;-63
2023/01/30 02:00:12;;;;;;;0.52;0.52;;;;;;;;;;4996622;28;20124;-64
2023/01/30 02:02:47;;;;;;;0.32;0.32;;;;;;;;;;5022283;28;20069;-65
2023/01/30 02:05:16;;;;;;;16.48;1.30;;;;;;;;;;5009307;28;20101;-64
2023/01/30 02:07:45;;;;;;;0.20;0.20;;;;;;;;;;5011813;28;20623;-64
2023/01/30 02:10:17;;;;;;;0.22;0.22;;;;;;;;;;5007100;28;20126;-64
2023/01/30 02:12:45;;;;;;;1.20;0.95;;;;;;;;;;5008200;28;20044;-63
2023/01/30 02:15:32;;;;;;;1.77;1.08;;;;;;;;;;4973418;28;20701;-64
2023/01/30 02:17:58;;;;;;;0.30;0.30;;;;;;;;;;4995022;28;20070;-64
2023/01/30 02:20:25;;;;;;;0.65;0.65;;;;;;;;;;4998321;28;20034;-63
2023/01/30 02:23:05;;;;;;;0.82;0.75;;;;;;;;;;4985241;28;20589;-64
2023/01/30 02:25:50;;;;;;;0.57;0.45;;;;;;;;;;4991146;28;20064;-63
2023/01/30 02:28:16;;;;;;;0.52;0.47;;;;;;;;;;4994502;28;20078;-65
2023/01/30 02:30:43;;;;;;;0.30;0.30;;;;;;;;;;5009311;28;20128;-65
2023/01/30 02:33:15;;;;;;;0.98;0.73;;;;;;;;;;4994644;28;20041;-64
2023/01/30 02:35:54;;;;;;;0.50;0.50;;;;;;;;;;5008523;28;20057;-64
2023/01/30 02:38:34;;;;;;;0.55;0.45;;;;;;;;;;5010987;28;20231;-63
2023/01/30 02:41:19;;;;;;;1.98;0.68;;;;;;;;;;5012114;28;20121;-64
2023/01/30 02:43:54;;;;;;;0.20;0.20;;;;;;;;;;5012565;28;20778;-65
2023/01/30 02:46:25;;;;;;;2.60;1.55;;;;;;;;;;4989103;28;20033;-64
2023/01/30 02:49:11;;;;;;;0.20;0.20;;;;;;;;;;5007636;28;20054;-61
2023/01/30 02:51:38;;;;;;;1.35;0.85;;;;;;;;;;4987317;28;20852;-66
2023/01/30 02:54:06;;;;;;;0.10;0.10;;;;;;;;;;5005674;28;20131;-63
2023/01/30 02:56:52;;;;;;;0.77;0.77;;;;;;;;;;4997896;28;20053;-63
2023/01/30 02:59:22;;;;;;;0.60;0.50;;;;;;;;;;5021110;28;20068;-65
2023/01/30 03:02:08;;;;;;;0.45;0.40;;;;;;;;;;5008010;28;22179;-63
2023/01/30 03:04:34;;;;;;;2.10;0.75;;;;;;;;;;5010730;28;20033;-65
2023/01/30 03:07:11;;;;;;;0.52;0.52;;;;;;;;;;5008409;28;20400;-63
2023/01/30 03:09:44;;;;;;;0.93;0.80;;;;;;;;;;5008175;28;20136;-63
2023/01/30 03:12:14;;;;;;;0.25;0.25;;;;;;;;;;5006219;28;20129;-62
2023/01/30 03:14:50;;;;;;;0.77;0.57;;;;;;;;;;5002490;28;20812;-62
2023/01/30 03:17:17;;;;;;;0.68;0.68;;;;;;;;;;5006242;28;20073;-65
2023/01/30 03:19:45;;;;;;;0.55;0.50;;;;;;;;;;5013096;28;20037;-64
2023/01/30 03:22:11;;;;;;;0.35;0.25;;;;;;;;;;5006738;28;20681;-65
2023/01/30 03:24:38;;;;;;;1.20;0.63;;;;;;;;;;5004356;28;20441;-64
2023/01/30 03:27:10;;;;;;;0.30;0.22;;;;;;;;;;5004905;28;20042;-63
2023/01/30 03:29:56;;;;;;;0.70;0.55;;;;;;;;;;4968599;28;20787;-64
2023/01/30 03:32:23;;;;;;;5.10;1.23;;;;;;;;;;4967916;28;20123;-63
2023/01/30 03:34:50;;;;;;;1.17;0.75;;;;;;;;;;4969509;28;20034;-64
2023/01/30 03:37:36;;;;;;;0.73;0.73;;;;;;;;;;4946363;28;20062;-64
2023/01/30 03:40:03;;;;;;;1.27;0.85;;;;;;;;;;4948561;28;20424;-62
2023/01/30 03:42:30;;;;;;;1.52;1.15;;;;;;;;;;4947519;28;20827;-63
2023/01/30 03:44:56;;;;;;;2.20;0.75;;;;;;;;;;4945865;28;20083;-58
2023/01/30 03:47:23;;;;;;;0.80;0.52;;;;;;;;;;4946512;28;20047;-62
2023/01/30 03:49:50;;;;;;;0.68;0.35;;;;;;;;;;4947302;28;20043;-62
2023/01/30 03:52:16;;;;;;;4.90;1.33;;;;;;;;;;4952420;28;20099;-63
2023/01/30 03:54:43;;;;;;;1.00;0.63;;;;;;;;;;4955383;28;20210;-62
2023/01/30 03:57:10;;;;;;;5.95;1.05;;;;;;;;;;4958391;28;20167;-64
2023/01/30 03:59:36;;;;;;;0.73;0.47;;;;;;;;;;4964881;28;20058;-64
2023/01/30 04:02:03;;;;;;;0.73;0.47;;;;;;;;;;5015310;28;20038;-64
2023/01/30 04:04:49;;;;;;;0.20;0.20;;;;;;;;;;4963379;28;20041;-62
2023/01/30 04:07:16;;;;;;;2.65;0.73;;;;;;;;;;4946354;28;20126;-63
2023/01/30 04:09:43;;;;;;;0.20;0.20;;;;;;;;;;4950508;28;20046;-63
2023/01/30 04:12:11;;;;;;;0.52;0.40;;;;;;;;;;4955735;28;20050;-64
2023/01/30 04:14:38;;;;;;;1.45;0.50;;;;;;;;;;4948519;28;20043;-64
2023/01/30 04:17:04;;;;;;;0.45;0.38;;;;;;;;;;4958354;28;20047;-62
2023/01/30 04:19:31;;;;;;;0.77;0.38;;;;;;;;;;4957427;28;20045;-63
2023/01/30 04:21:58;;;;;;;0.68;0.32;;;;;;;;;;4966309;28;20539;-65
2023/01/30 04:24:24;;;;;;;0.43;0.35;;;;;;;;;;4961335;28;20035;-65
2023/01/30 04:26:51;;;;;;;1.25;0.70;;;;;;;;;;4967124;28;20871;-63
2023/01/30 04:29:37;;;;;;;0.20;0.20;;;;;;;;;;4962209;28;20113;-63
2023/01/30 04:32:04;;;;;;;0.52;0.35;;;;;;;;;;4963971;28;20101;-62
2023/01/30 04:34:31;;;;;;;0.98;0.45;;;;;;;;;;4969797;28;20039;-62
2023/01/30 04:36:58;;;;;;;0.20;0.20;;;;;;;;;;5009329;28;20054;-64
2023/01/30 04:39:24;;;;;;;0.30;0.30;;;;;;;;;;4990126;28;20042;-62
2023/01/30 04:41:51;;;;;;;0.93;0.65;;;;;;;;;;5006792;28;20070;-62
2023/01/30 04:44:19;;;;;;;0.20;0.20;;;;;;;;;;4985111;28;20050;-66
2023/01/30 04:46:46;;;;;;;0.90;0.40;;;;;;;;;;4983106;28;20580;-61
2023/01/30 04:49:12;;;;;;;1.08;0.47;;;;;;;;;;4987329;28;21575;-62
2023/01/30 04:51:39;;;;;;;0.55;0.40;;;;;;;;;;4998748;28;20153;-69
2023/01/30 04:54:06;;;;;;;1.08;0.60;;;;;;;;;;4991764;28;20042;-64
2023/01/30 04:56:32;;;;;;;0.77;0.50;;;;;;;;;;4992179;28;20262;-65
2023/01/30 04:58:59;;;;;;;1.13;0.50;;;;;;;;;;4989505;28;20372;-62
2023/01/30 05:01:30;;;;;;;0.45;0.30;;;;;;;;;;4982217;28;20077;-65
2023/01/30 05:03:57;;;;;;;0.57;0.30;;;;;;;;;;4981027;28;20070;-63
2023/01/30 05:06:24;;;;;;;0.20;0.20;;;;;;;;;;4983133;28;20822;-64
2023/01/30 05:08:51;;;;;;;0.52;0.40;;;;;;;;;;4973107;28;20035;-62
2023/01/30 05:11:38;;;;;;;0.50;0.50;;;;;;;;;;4972848;28;20038;-64
2023/01/30 05:14:06;;;;;;;1.05;0.55;;;;;;;;;;4970077;28;20103;-68
2023/01/30 05:16:32;;;;;;;3.05;1.50;;;;;;;;;;4967052;28;20140;-65
2023/01/30 05:18:59;;;;;;;1.48;0.60;;;;;;;;;;4954510;28;20172;-63
2023/01/30 05:21:27;;;;;;;0.73;0.43;;;;;;;;;;4964879;28;20148;-64
2023/01/30 05:23:54;;;;;;;1.55;0.70;;;;;;;;;;4984715;28;20642;-63
2023/01/30 05:26:21;;;;;;;0.30;0.30;;;;;;;;;;4992083;28;20077;-64
2023/01/30 05:28:54;;;;;;;0.25;0.25;;;;;;;;;;4976362;28;20102;-64
2023/01/30 05:31:22;;;;;;;0.85;0.45;;;;;;;;;;4977591;28;20554;-62
2023/01/30 05:33:52;;;;;;;13.25;1.55;;;;;;;;;;4979693;28;20042;-62
2023/01/30 05:36:19;;;;;;;0.65;0.40;;;;;;;;;;4980441;28;20602;-61
2023/01/30 05:38:46;;;;;;;1.02;0.45;;;;;;;;;;4978667;28;20611;-62
2023/01/30 05:41:34;;;;;;;0.57;0.40;;;;;;;;;;4939550;28;20039;-62
2023/01/30 05:44:00;;;;;;;0.43;0.30;;;;;;;;;;4932763;28;20036;-62
2023/01/30 05:46:28;;;;;;;0.20;0.20;;;;;;;;;;4967293;28;20536;-62
2023/01/30 05:48:55;;;;;;;1.05;0.40;;;;;;;;;;4979776;28;20128;-62
2023/01/30 05:51:23;;;;;;;3.55;0.63;;;;;;;;;;4962769;28;20229;-63
2023/01/30 05:53:50;;;;;;;0.20;0.20;;;;;;;;;;4974178;28;20038;-66
2023/01/30 05:56:17;;;;;;;0.20;0.20;;;;;;;;;;4978535;28;20161;-64
2023/01/30 05:58:44;;;;;;;0.45;0.30;;;;;;;;;;4978668;28;20081;-64
2023/01/30 06:01:12;;;;;;;0.38;0.30;;;;;;;;;;4965037;28;20050;-63
2023/01/30 06:03:38;;;;;;;0.73;0.43;;;;;;;;;;4971643;28;20043;-63
2023/01/30 06:06:05;;;;;;;2.45;0.40;;;;;;;;;;4978752;28;20150;-62
2023/01/30 06:08:32;;;;;;;0.52;0.40;;;;;;;;;;4978329;28;20052;-64
2023/01/30 06:11:07;;;;;;;0.10;0.10;;;;;;;;;;4961057;28;20038;-64
2023/01/30 06:13:33;;;;;;;0.22;0.20;;;;;;;;;;4974406;28;20101;-63
2023/01/30 06:16:00;;;;;;;0.52;0.30;;;;;;;;;;4948268;28;20050;-65
2023/01/30 06:18:27;;;;;;;0.65;0.38;;;;;;;;;;4972237;28;20410;-62
2023/01/30 06:20:55;;;;;;;0.30;0.30;;;;;;;;;;4998089;28;20053;-61
2023/01/30 06:23:25;;;;;;;2.28;0.65;;;;;;;;;;5009297;28;20056;-61
2023/01/30 06:25:52;;;;;;;0.68;0.35;;;;;;;;;;5004559;28;20085;-64
2023/01/30 06:28:19;;;;;;;0.88;0.40;;;;;;;;;;5006347;28;20034;-64
2023/01/30 06:30:46;;;;;;;0.20;0.20;;;;;;;;;;5005103;28;20042;-63
2023/01/30 06:33:13;;;;;;;0.28;0.25;;;;;;;;;;5007477;28;20069;-64
2023/01/30 06:35:40;;;;;;;2.00;0.73;;;;;;;;;;5005912;28;20059;-62
2023/01/30 06:38:26;;;;;;;2.33;1.00;;;;;;;;;;4994174;28;20052;-62
2023/01/30 06:40:53;;;;;;;1.13;0.50;;;;;;;;;;4958172;28;20035;-61
2023/01/30 06:43:20;;;;;;;3.97;1.25;;;;;;;;;;4949933;28;20066;-62
2023/01/30 06:45:46;;;;;;;1.90;0.60;;;;;;;;;;4951039;28;20037;-62
2023/01/30 06:48:13;;;;;;;1.60;0.70;;;;;;;;;;4960199;28;20490;-61
2023/01/30 06:50:39;;;;;;;1.42;0.68;;;;;;;;;;4959284;28;20054;-59
2023/01/30 06:53:08;;;;;;;0.90;0.47;;;;;;;;;;4959545;28;20047;-61
2023/01/30 06:55:35;;;;;;;2.00;0.82;;;;;;;;;;4935987;28;20080;-64
2023/01/30 06:58:02;;;;;;;1.90;0.68;;;;;;;;;;4959040;28;20078;-62
2023/01/30 07:00:30;;;;;;;1.52;0.70;;;;;;;;;;4946202;28;20180;-63
2023/01/30 07:02:57;;;;;;;1.45;0.65;;;;;;;;;;4940507;28;20079;-62
2023/01/30 07:05:48;;;;;;;1.23;0.52;;;;;;;;;;4950414;28;20070;-62
2023/01/30 07:08:15;;;;;;;1.77;0.43;;;;;;;;;;4962872;28;20515;-63
2023/01/30 07:10:42;;;;;;;0.82;0.40;;;;;;;;;;4967108;28;20037;-61
2023/01/30 07:13:09;;;;;;;1.25;0.60;;;;;;;;;;4962347;28;20995;-64
2023/01/30 07:15:36;;;;;;;1.40;0.50;;;;;;;;;;4938980;28;20058;-65
2023/01/30 07:18:02;;;;;;;0.70;0.38;;;;;;;;;;4970662;28;20292;-64
2023/01/30 07:20:30;;;;;;;0.35;0.30;;;;;;;;;;5001002;28;20074;-63
2023/01/30 07:22:56;;;;;;;0.75;0.40;;;;;;;;;;5000877;28;20064;-64
2023/01/30 07:25:24;;;;;;;0.88;0.40;;;;;;;;;;4995337;28;20038;-64
2023/01/30 07:27:58;;;;;;;1.55;0.70;;;;;;;;;;5007784;28;20049;-62
2023/01/30 07:30:26;;;;;;;0.60;0.38;;;;;;;;;;4987900;28;20073;-63
2023/01/30 07:32:53;;;;;;;1.02;0.55;;;;;;;;;;5003281;28;20602;-64
2023/01/30 07:35:22;;;;;;;2.28;0.70;;;;;;;;;;5002685;28;20122;-63
2023/01/30 07:37:49;;;;;;;1.45;0.60;;;;;;;;;;4992237;28;20037;-62
2023/01/30 07:40:16;;;;;;;0.35;0.30;;;;;;;;;;5005270;28;20045;-65
2023/01/30 07:42:43;;;;;;;0.68;0.40;;;;;;;;;;5004466;28;20145;-64
2023/01/30 07:45:49;;;;;;;2.40;0.70;;;;;;;;;;5005552;28;20621;-63
2023/01/30 07:48:17;;;;;;;2.92;0.68;;;;;;;;;;5001588;28;20046;-62
2023/01/30 07:50:44;;;;;;;0.25;0.25;;;;;;;;;;5002620;28;20168;-62
2023/01/30 07:53:12;;;;;;;0.45;0.32;;;;;;;;;;5002780;28;20158;-63
2023/01/30 07:55:39;;;;;;;0.95;0.40;;;;;;;;;;5002855;28;20179;-64
2023/01/30 07:58:06;;;;;;;0.60;0.40;;;;;;;;;;5006916;28;20038;-64
2023/01/30 08:00:33;;;;;;;1.02;0.68;;;;;;;;;;5003501;28;20370;-64
2023/01/30 08:02:59;;;;;;;0.32;0.30;;;;;;;;;;5003664;28;20049;-65
2023/01/30 08:05:26;;;;;;;1.92;0.63;;;;;;;;;;5003127;28;20490;-65
2023/01/30 08:07:55;;;;;;;0.35;0.20;;;;;;;;;;4999910;28;20164;-64
2023/01/30 08:10:21;;;;;;;1.13;0.45;;;;;;;;;;5003514;28;20033;-63
2023/01/30 08:12:50;;;;;;;0.77;0.45;;;;;;;;;;5002245;28;20101;-63
2023/01/30 08:15:17;;;;;;;0.60;0.38;;;;;;;;;;4999787;28;20046;-63
2023/01/30 08:17:43;;;;;;;0.20;0.20;;;;;;;;;;5014739;28;20036;-66
2023/01/30 08:20:10;;;;;;;0.17;0.17;;;;;;;;;;5017932;28;20056;-63
2023/01/30 08:22:37;;;;;;;0.35;0.20;;;;;;;;;;5021056;28;20806;-64
2023/01/30 08:25:04;;;;;;;0.22;0.22;;;;;;;;;;4993172;28;20128;-61
2023/01/30 08:27:30;;;;;;;1.27;0.60;;;;;;;;;;5017045;28;20042;-62
2023/01/30 08:29:57;;;;;;;0.45;0.38;;;;;;;;;;5021559;28;20092;-62
2023/01/30 08:32:24;;;;;;;0.20;0.20;;;;;;;;;;5020392;28;20078;-63
2023/01/30 08:34:50;;;;;;;0.43;0.30;;;;;;;;;;5026597;28;20041;-63
2023/01/30 08:37:17;;;;;;;1.25;0.50;;;;;;;;;;5024166;28;20050;-61
2023/01/30 08:39:44;;;;;;;0.95;0.30;;;;;;;;;;4985257;28;20402;-63
2023/01/30 08:42:30;;;;;;;0.45;0.40;;;;;;;;;;4985793;28;20883;-63
2023/01/30 08:44:57;;;;;;;1.55;0.40;;;;;;;;;;4976157;28;20690;-62
2023/01/30 08:47:23;;;;;;;0.47;0.38;;;;;;;;;;4980129;28;20081;-63
2023/01/30 08:49:51;;;;;;;0.20;0.20;;;;;;;;;;4978215;28;20035;-62
2023/01/30 08:52:18;;;;;;;1.27;0.50;;;;;;;;;;4970338;28;20187;-63
2023/01/30 08:54:45;;;;;;;0.55;0.30;;;;;;;;;;4968808;28;20353;-62
2023/01/30 08:57:13;;;;;;;0.82;0.40;;;;;;;;;;4968236;28;20065;-63
2023/01/30 08:59:40;;;;;;;0.57;0.35;;;;;;;;;;4967683;28;20049;-63
2023/01/30 09:02:08;;;;;;;0.90;0.30;;;;;;;;;;4970897;28;20040;-65
2023/01/30 09:04:35;;;;;;;1.25;0.30;;;;;;;;;;4968274;28;20042;-65
2023/01/30 09:07:02;;;;;;;1.10;0.50;;;;;;;;;;4972338;28;20515;-64
2023/01/30 09:09:29;;;;;;;0.80;0.40;;;;;;;;;;4973152;28;20050;-64
2023/01/30 09:11:55;;;;;;;0.52;0.30;;;;;;;;;;4974716;28;20042;-64
2023/01/30 09:14:22;;;;;;;0.80;0.40;;;;;;;;;;4971708;28;20065;-63
2023/01/30 09:16:55;;;;;;;1.55;0.52;;;;;;;;;;4971566;28;20039;-64
2023/01/30 09:19:26;;;;;;;0.68;0.38;;;;;;;;;;4947268;28;20039;-64
2023/01/30 09:21:53;;;;;;;0.75;0.38;;;;;;;;;;4971908;28;20053;-63
2023/01/30 09:24:25;;;;;;;1.88;0.60;;;;;;;;;;4976063;28;20038;-64
2023/01/30 09:26:57;;;;;;;0.60;0.30;;;;;;;;;;4982846;28;20038;-62
2023/01/30 09:29:28;;;;;;;0.20;0.20;;;;;;;;;;4980269;28;21736;-62
2023/01/30 09:31:58;;;;;;;0.90;0.43;;;;;;;;;;4984760;28;20081;-63
2023/01/30 09:34:28;;;;;;;0.80;0.32;;;;;;;;;;4975094;28;20134;-65
2023/01/30 09:36:55;;;;;;;1.40;0.47;;;;;;;;;;4982575;28;20054;-64
2023/01/30 09:39:22;;;;;;;0.82;0.30;;;;;;;;;;4982953;28;20039;-64
2023/01/30 09:41:52;;;;;;;0.43;0.30;;;;;;;;;;4987510;28;20088;-62
2023/01/30 09:44:36;;;;;;;0.75;0.40;;;;;;;;;;4984894;28;20110;-64
2023/01/30 09:47:15;;;;;;;1.55;0.40;;;;;;;;;;4984812;28;21253;-63
2023/01/30 09:49:50;;;;;;;0.22;0.22;;;;;;;;;;5001554;28;20053;-63
2023/01/30 09:52:30;;;;;;;0.63;0.40;;;;;;;;;;4997033;28;20057;-62
2023/01/30 09:55:15;;;;;;;0.20;0.20;;;;;;;;;;4986423;28;20631;-61
2023/01/30 09:57:42;;;;;;;2.28;0.50;;;;;;;;;;4982116;28;20042;-61
2023/01/30 10:00:09;;;;;;;0.20;0.20;;;;;;;;;;4984680;28;20453;-63
2023/01/30 10:02:39;;;;;;;0.35;0.30;;;;;;;;;;4990194;28;20089;-64
2023/01/30 10:05:05;;;;;;;1.08;0.35;;;;;;;;;;4995433;28;20096;-64
2023/01/30 10:07:41;;;;;;;0.60;0.40;;;;;;;;;;4996212;28;20045;-64
2023/01/30 10:10:09;;;;;;;0.22;0.20;;;;;;;;;;5009231;28;20097;-64
2023/01/30 10:13:04;;;;;;;0.57;0.30;;;;;;;;;;5004965;28;20042;-63
2023/01/30 10:15:39;;;;;;;0.22;0.20;;;;;;;;;;4985089;28;20050;-62
2023/01/30 10:18:24;;;;;;;0.90;0.45;;;;;;;;;;4979963;28;20034;-62
2023/01/30 10:21:09;;;;;;;0.20;0.20;;;;;;;;;;4993099;28;20046;-63
2023/01/30 10:23:54;;;;;;;0.20;0.20;;;;;;;;;;5020009;28;20049;-64
2023/01/30 10:26:23;;;;;;;1.20;0.38;;;;;;;;;;5012794;28;20044;-63
2023/01/30 10:29:05;;;;;;;0.10;0.10;;;;;;;;;;5022087;28;21508;-63
2023/01/30 10:31:37;;;;;;;0.30;0.30;;;;;;;;;;5020614;28;20599;-63
2023/01/30 10:34:06;;;;;;;0.20;0.20;;;;;;;;;;5023304;28;20235;-64
2023/01/30 10:36:38;;;;;;;0.85;0.40;;;;;;;;;;5022500;28;22108;-64
2023/01/30 10:39:10;;;;;;;0.20;0.20;;;;;;;;;;5005710;28;20041;-63
2023/01/30 10:41:38;;;;;;;0.20;0.20;;;;;;;;;;5019090;28;20072;-64
2023/01/30 10:44:12;;;;;;;0.30;0.30;;;;;;;;;;5024057;28;20048;-63
2023/01/30 10:46:55;;;;;;;0.82;0.40;;;;;;;;;;5022520;28;20496;-65
2023/01/30 10:49:36;;;;;;;0.20;0.20;;;;;;;;;;5023557;28;20698;-65
2023/01/30 10:52:03;;;;;;;0.28;0.20;;;;;;;;;;5025146;28;20048;-65
2023/01/30 10:54:29;;;;;;;0.20;0.20;;;;;;;;;;5021267;28;20124;-63
2023/01/30 10:57:14;;;;;;;0.43;0.30;;;;;;;;;;5022740;28;20639;-65
2023/01/30 10:59:46;;;;;;;0.82;0.30;;;;;;;;;;5022811;28;20029;-63
2023/01/30 11:02:19;;;;;;;0.30;0.22;;;;;;;;;;5022467;28;20045;-64
2023/01/30 11:04:46;;;;;;;0.22;0.22;;;;;;;;;;5020279;28;20045;-64
2023/01/30 11:07:13;;;;;;;0.40;0.20;;;;;;;;;;5015177;28;20584;-65
2023/01/30 11:09:41;;;;;;;0.20;0.20;;;;;;;;;;5023484;28;21797;-64
2023/01/30 11:12:09;;;;;;;0.20;0.20;;;;;;;;;;5024437;28;20041;-63
2023/01/30 11:14:53;;;;;;;0.68;0.35;;;;;;;;;;5023502;28;20095;-66
2023/01/30 11:17:21;;;;;;;0.73;0.43;;;;;;;;;;5024914;28;20900;-65
2023/01/30 11:20:01;;;;;;;0.45;0.30;;;;;;;;;;5007070;28;20045;-63
2023/01/30 11:22:28;;;;;;;0.57;0.30;;;;;;;;;;5023502;28;20052;-66
2023/01/30 11:25:02;;;;;;;1.02;0.50;;;;;;;;;;5026258;28;20029;-63
2023/01/30 11:27:30;;;;;;;0.30;0.30;;;;;;;;;;5025707;28;20526;-62
2023/01/30 11:30:07;;;;;;;0.20;0.20;;;;;;;;;;5020543;28;20959;-65
2023/01/30 11:32:37;;;;;;;0.22;0.22;;;;;;;;;;5024295;28;20160;-62
2023/01/30 11:35:07;;;;;;;5.10;0.70;;;;;;;;;;5026516;28;20041;-64
2023/01/30 11:37:35;;;;;;;0.65;0.40;;;;;;;;;;5024020;28;20045;-63
2023/01/30 11:40:08;;;;;;;0.47;0.30;;;;;;;;;;5024499;28;20037;-62
2023/01/30 11:42:34;;;;;;;0.20;0.20;;;;;;;;;;5026134;28;20116;-64
2023/01/30 11:45:02;;;;;;;0.80;0.40;;;;;;;;;;5027763;28;20041;-64
2023/01/30 11:47:28;;;;;;;1.15;0.38;;;;;;;;;;5023117;28;20060;-64
2023/01/30 11:49:57;;;;;;;0.98;0.50;;;;;;;;;;5024055;28;20124;-64
2023/01/30 11:52:26;;;;;;;0.88;0.40;;;;;;;;;;5021717;28;20168;-65
2023/01/30 11:54:54;;;;;;;1.48;0.50;;;;;;;;;;5022787;28;20033;-64
2023/01/30 11:57:20;;;;;;;0.70;0.40;;;;;;;;;;5022100;28;20073;-63
2023/01/30 11:59:49;;;;;;;1.10;0.40;;;;;;;;;;5020264;28;20513;-62
2023/01/30 12:02:31;;;;;;;0.98;0.40;;;;;;;;;;5022266;28;20052;-64
2023/01/30 12:05:03;;;;;;;4.40;0.60;;;;;;;;;;5020849;28;20045;-65
2023/01/30 12:07:31;;;;;;;0.70;0.30;;;;;;;;;;5017056;28;21024;-65
2023/01/30 12:09:58;;;;;;;1.55;0.45;;;;;;;;;;5027133;28;20091;-63
2023/01/30 12:12:31;;;;;;;0.63;0.30;;;;;;;;;;5028297;28;20442;-62
2023/01/30 12:15:03;;;;;;;0.73;0.30;;;;;;;;;;5027650;28;20049;-63
2023/01/30 12:17:48;;;;;;;2.25;0.60;;;;;;;;;;5011178;28;20498;-62
2023/01/30 12:20:33;;;;;;;1.08;0.40;;;;;;;;;;5025704;28;20052;-62
2023/01/30 12:23:03;;;;;;;0.82;0.35;;;;;;;;;;5026841;28;20509;-62
2023/01/30 12:25:39;;;;;;;0.82;0.40;;;;;;;;;;5028181;28;20847;-62
2023/01/30 12:28:21;;;;;;;2.20;0.57;;;;;;;;;;5025835;28;20037;-63
2023/01/30 12:31:14;;;;;;;0.75;0.40;;;;;;;;;;5022704;28;20151;-62
2023/01/30 12:33:40;;;;;;;1.35;0.50;;;;;;;;;;5022022;28;20125;-64
2023/01/30 12:36:21;;;;;;;1.23;0.50;;;;;;;;;;5022094;28;20068;-64
2023/01/30 12:39:06;;;;;;;0.80;0.40;;;;;;;;;;5017673;28;20064;-64
2023/01/30 12:41:42;;;;;;;1.35;0.50;;;;;;;;;;5019568;28;21113;-62
2023/01/30 12:44:28;;;;;;;0.82;0.40;;;;;;;;;;4957950;28;20469;-62
2023/01/30 12:47:06;;;;;;;1.48;0.45;;;;;;;;;;4951171;28;20050;-62
2023/01/30 12:49:58;;;;;;;1.20;0.47;;;;;;;;;;4941190;28;20035;-62
2023/01/30 12:52:43;;;;;;;7.55;0.40;;;;;;;;;;4947440;28;20105;-61
2023/01/30 12:55:28;;;;;;;1.15;0.50;;;;;;;;;;4945793;28;20659;-61
2023/01/30 12:58:15;;;;;;;0.57;0.30;;;;;;;;;;4945574;28;20098;-62
2023/01/30 13:00:50;;;;;;;1.08;0.38;;;;;;;;;;4946063;28;20114;-63
2023/01/30 13:04:03;;;;;;;1.95;0.60;;;;;;;;;;4947797;28;20046;-62
2023/01/30 13:06:54;;;;;;;2.17;0.50;;;;;;;;;;4945379;28;20057;-63
2023/01/30 13:09:39;;;;;;;5.93;0.57;;;;;;;;;;4953173;28;20192;-64
2023/01/30 13:12:31;;;;;;;0.68;0.30;;;;;;;;;;4949382;28;20039;-63
2023/01/30 13:15:04;;;;;;;1.35;0.45;;;;;;;;;;4944484;28;20065;-64
2023/01/30 13:17:54;;;;;;;1.23;0.47;;;;;;;;;;5011657;28;20649;-65
2023/01/30 13:20:27;;;;;;;0.32;0.22;;;;;;;;;;5018467;28;20888;-64
2023/01/30 13:23:18;;;;;;;1.92;0.52;;;;;;;;;;5000915;28;20046;-66
2023/01/30 13:25:55;;;;;;;0.82;0.40;;;;;;;;;;4999877;28;20045;-64
2023/01/30 13:28:24;;;;;;;0.63;0.30;;;;;;;;;;5001405;28;20045;-63
2023/01/30 13:31:11;;;;;;;0.43;0.22;;;;;;;;;;5015914;28;20088;-65
2023/01/30 13:33:40;;;;;;;0.82;0.40;;;;;;;;;;4995870;28;21468;-63
2023/01/30 13:36:07;;;;;;;1.20;0.30;;;;;;;;;;5019221;28;20407;-64
2023/01/30 13:38:37;;;;;;;1.35;0.40;;;;;;;;;;5009880;28;20061;-64
2023/01/30 13:41:23;;;;;;;0.43;0.20;;;;;;;;;;5014797;28;20037;-63
2023/01/30 13:43:52;;;;;;;0.52;0.28;;;;;;;;;;4953333;28;20042;-64
2023/01/30 13:46:27;;;;;;;0.75;0.30;;;;;;;;;;4962437;28;20087;-64
2023/01/30 13:49:19;;;;;;;2.08;0.55;;;;;;;;;;4952296;28;20071;-63
2023/01/30 13:51:50;;;;;;;0.95;0.30;;;;;;;;;;4963662;28;20046;-65
2023/01/30 13:54:22;;;;;;;1.52;0.57;;;;;;;;;;4954676;28;20051;-64
2023/01/30 13:56:53;;;;;;;1.85;0.70;;;;;;;;;;4958993;28;20047;-65
2023/01/30 13:59:38;;;;;;;0.55;0.30;;;;;;;;;;4957442;28;20569;-64
2023/01/30 14:02:26;;;;;;;0.32;0.25;;;;;;;;;;4961367;28;20050;-64
2023/01/30 14:04:53;;;;;;;0.20;0.20;;;;;;;;;;4942573;28;20035;-64
2023/01/30 14:07:23;;;;;;;1.20;0.43;;;;;;;;;;4954780;28;20043;-64
2023/01/30 14:10:04;;;;;;;1.17;0.50;;;;;;;;;;4954495;28;20050;-65
2023/01/30 14:12:37;;;;;;;0.45;0.40;;;;;;;;;;4958308;28;20046;-64
2023/01/30 14:15:24;;;;;;;0.70;0.30;;;;;;;;;;4970061;28;20996;-63
2023/01/30 14:18:00;;;;;;;0.90;0.30;;;;;;;;;;4943914;28;20590;-65
2023/01/30 14:20:28;;;;;;;0.45;0.35;;;;;;;;;;4954987;28;20125;-66
2023/01/30 14:23:32;;;;;;;0.50;0.30;;;;;;;;;;5022964;28;20053;-64
2023/01/30 14:26:38;;;;;;;0.77;0.40;;;;;;;;;;5000025;28;20148;-65
2023/01/30 14:29:07;;;;;;;0.28;0.20;;;;;;;;;;4977144;28;20133;-65
2023/01/30 14:31:49;;;;;;;0.45;0.32;;;;;;;;;;4983451;28;20609;-65
2023/01/30 14:34:38;;;;;;;0.28;0.20;;;;;;;;;;4969011;28;20387;-65
2023/01/30 14:37:25;;;;;;;0.70;0.30;;;;;;;;;;4960644;28;20554;-65
2023/01/30 14:39:55;;;;;;;1.45;0.50;;;;;;;;;;4975862;28;20045;-63
2023/01/30 14:42:23;;;;;;;1.00;0.40;;;;;;;;;;4963201;28;20097;-65
2023/01/30 14:44:59;;;;;;;1.05;0.40;;;;;;;;;;4997770;28;20034;-64
2023/01/30 14:47:27;;;;;;;0.45;0.30;;;;;;;;;;4991412;28;20057;-65
2023/01/30 14:49:55;;;;;;;0.10;0.10;;;;;;;;;;5002906;28;20041;-65
2023/01/30 14:52:43;;;;;;;0.65;0.32;;;;;;;;;;4997978;28;20137;-65
2023/01/30 14:55:18;;;;;;;0.88;0.32;;;;;;;;;;5004507;28;20104;-65
2023/01/30 14:57:55;;;;;;;1.08;0.50;;;;;;;;;;5004796;28;20056;-64
2023/01/30 15:00:34;;;;;;;2.00;0.73;;;;;;;;;;5004007;28;20053;-64
2023/01/30 15:03:20;;;;;;;1.85;0.40;;;;;;;;;;4971846;28;20259;-64
2023/01/30 15:05:47;;;;;;;2.22;0.50;;;;;;;;;;4985178;28;20104;-64
2023/01/30 15:08:22;;;;;;;1.45;0.52;;;;;;;;;;4978210;28;20095;-63
2023/01/30 15:11:11;;;;;;;3.42;0.75;;;;;;;;;;4980486;28;20109;-64
2023/01/30 15:13:44;;;;;;;0.20;0.20;;;;;;;;;;4984514;28;20894;-65
2023/01/30 15:16:27;;;;;;;1.50;0.53;;;;;;;;;;4991713;28;20050;-65
2023/01/30 15:19:19;;;;;;;1.02;0.50;;;;;;;;;;4994863;28;20787;-65